To NAV CANADA Home Page Login to a new session Search on AWWS site Feedback and Comments Disclaimer Vers la page française équivalente Tips FAQ What's new on the site To the Forecasts and Observations / NOTAM section To "File a Flight Plan" website Publications and other links Update of the User's profile FIC Telephone Numbers My Weather Data Folder Route Weather Data Regional Weather Data Local Weather Data To the Forecasts and Observations / NOTAM section
Request Generated 07/26/2016 at 12:09:49 UTC . Weather information available at that time is displayed.

METAR/TAF

LYNN LAKE/MB    (show WxCam)

METAR CYYL 261200Z AUTO /////KT 9SM CLR 11/07 A3007 RMK WND MISG
SLP196=
METAR CYYL 261100Z AUTO /////KT 9SM CLR 10/07 A3005 RMK WND MISG
SLP188=
METAR CYYL 261000Z AUTO /////KT 9SM CLR 09/07 A3004 RMK WND MISG
SLP184=

TAF CYYL 260642Z 2607/2619 33012G22KT P6SM BKN030 BKN060 TEMPO
2607/2616 BKN020
BECMG 2608/2610 33010KT
FM261600 36010KT P6SM SCT030
RMK FCST BASED ON AUTO OBS. NXT FCST BY 261300Z=
Your time UTC time
Weather data provided by Environment Canada and NAV CANADA